Time;durP1;ratioP1;P1;durP2;ratioP2;P2;SDS_P1;SDS_P2;PMS_P1;PMS_P2;Temp;Humidity;BMP_temperature;BMP_pressure;BME280_temperature;BME280_humidity;BME280_pressure;Samples;Min_cycle;Max_cycle;Signal;HPM_P1;HPM_P2
2023/07/29 00:00:56;;;;;;;;;;;;;;;24.32;52.58;100160.95;2282101;77;50497;-74
2023/07/29 00:03:57;;;;;;;;;;;;;;;24.31;52.52;100156.08;2306481;77;52570;-74
2023/07/29 00:06:59;;;;;;;;;;;;;;;24.32;52.49;100162.30;2281911;77;50574;-74
2023/07/29 00:10:00;;;;;;;;;;;;;;;24.32;52.53;100160.95;2287227;76;50180;-75
2023/07/29 00:13:02;;;;;;;;;;;;;;;24.35;52.44;100160.48;2274164;77;49886;-74
2023/07/29 00:16:04;;;;;;;;;;;;;;;24.37;52.36;100155.67;2257575;77;51546;-75
2023/07/29 00:19:05;;;;;;;;;;;;;;;24.37;52.37;100162.42;2282115;77;50213;-74
2023/07/29 00:22:08;;;;;;;;;;;;;;;24.38;52.38;100155.13;2313671;77;50161;-74
2023/07/29 00:25:10;;;;;;;;;;;;;;;24.38;52.42;100154.63;2313661;75;51474;-74
2023/07/29 00:28:12;;;;;;;;;;;;;;;24.39;52.41;100160.86;2257223;77;51115;-74
2023/07/29 00:31:14;;;;;;;;;;;;;;;24.39;52.54;100154.09;2282272;77;51587;-74
2023/07/29 00:34:19;;;;;;;;;;;;;;;24.35;52.66;100148.31;2282514;77;51404;-76
2023/07/29 00:37:18;;;;;;;;;;;;;;;24.32;52.71;100150.95;2282291;77;22448;-74
2023/07/29 00:40:20;;;;;;;;;;;;;;;24.32;52.71;100152.84;2257834;77;51615;-73
2023/07/29 00:43:22;;;;;;;;;;;;;;;24.31;52.76;100155.27;2266804;76;51514;-74
2023/07/29 00:46:24;;;;;;;;;;;;;;;24.31;52.64;100156.61;2268912;77;52092;-74
2023/07/29 00:49:25;;;;;;;;;;;;;;;24.31;52.54;100157.43;2280791;78;50188;-74
2023/07/29 00:52:27;;;;;;;;;;;;;;;24.33;52.44;100142.34;2282233;76;51476;-74
2023/07/29 00:55:28;;;;;;;;;;;;;;;24.33;52.45;100143.16;2282887;76;50693;-74
2023/07/29 00:58:30;;;;;;;;;;;;;;;24.32;52.34;100145.55;2282629;76;50182;-74
2023/07/29 01:01:32;;;;;;;;;;;;;;;24.35;52.25;100142.91;2269661;78;51325;-74
2023/07/29 01:04:33;;;;;;;;;;;;;;;24.33;52.29;100137.75;2296311;77;52507;-75
2023/07/29 01:07:52;;;;;;;;;;;;;;;24.31;52.45;100131.74;2269506;78;50633;-75
2023/07/29 01:11:01;;;;;;;;;;;;;;;24.33;52.40;100136.93;2300310;76;51500;-75
2023/07/29 01:14:13;;;;;;;;;;;;;;;24.34;52.29;100134.51;2261418;78;50648;-75
2023/07/29 01:17:17;;;;;;;;;;;;;;;24.31;52.32;100126.88;2248622;78;50291;-75
2023/07/29 01:20:20;;;;;;;;;;;;;;;24.30;52.42;100122.50;2270799;78;50736;-75
2023/07/29 01:23:23;;;;;;;;;;;;;;;24.31;52.35;100105.23;2271573;78;51333;-75
2023/07/29 01:26:24;;;;;;;;;;;;;;;24.29;52.35;100102.76;2271347;77;51953;-75
2023/07/29 01:29:26;;;;;;;;;;;;;;;24.29;52.45;100097.34;2223906;78;52280;-75
2023/07/29 01:32:46;;;;;;;;;;;;;;;24.28;52.52;100098.95;2271552;76;51329;-75
2023/07/29 01:35:49;;;;;;;;;;;;;;;24.28;52.49;100101.66;2271648;77;51341;-75
2023/07/29 01:38:51;;;;;;;;;;;;;;;24.27;52.48;100101.34;2278794;76;51319;-74
2023/07/29 01:41:52;;;;;;;;;;;;;;;24.27;52.44;100102.70;2297903;76;50053;-74
2023/07/29 01:44:54;;;;;;;;;;;;;;;24.27;52.38;100102.70;2321443;76;51532;-74
2023/07/29 01:47:56;;;;;;;;;;;;;;;24.26;52.41;100103.77;2321313;75;51265;-74
2023/07/29 01:50:57;;;;;;;;;;;;;;;24.25;52.32;100116.47;2321388;76;51374;-74
2023/07/29 01:53:59;;;;;;;;;;;;;;;24.25;52.31;100111.56;2309208;76;52285;-75
2023/07/29 01:57:01;;;;;;;;;;;;;;;24.26;52.24;100114.58;2309095;76;51545;-75
2023/07/29 02:00:03;;;;;;;;;;;;;;;24.26;52.19;100118.64;2321361;76;51415;-75
2023/07/29 02:03:05;;;;;;;;;;;;;;;24.26;52.25;100119.98;2321431;76;50028;-75
2023/07/29 02:06:07;;;;;;;;;;;;;;;24.25;52.24;100119.67;2283420;76;51462;-74
2023/07/29 02:09:08;;;;;;;;;;;;;;;24.26;52.16;100121.34;2309866;76;50248;-75
2023/07/29 02:12:10;;;;;;;;;;;;;;;24.25;52.25;100122.37;2303058;76;50637;-75
2023/07/29 02:15:11;;;;;;;;;;;;;;;24.25;52.34;100123.73;2319486;75;50371;-74
2023/07/29 02:18:13;;;;;;;;;;;;;;;24.24;52.46;100120.74;2269718;76;50991;-75
2023/07/29 02:21:15;;;;;;;;;;;;;;;24.25;52.43;100126.44;2295402;76;50592;-74
2023/07/29 02:24:16;;;;;;;;;;;;;;;24.26;52.20;100128.10;2319591;76;51213;-74
2023/07/29 02:27:18;;;;;;;;;;;;;;;24.27;52.26;100120.27;2319369;75;51379;-74
2023/07/29 02:30:19;;;;;;;;;;;;;;;24.27;52.13;100124.33;2295017;76;51459;-74
2023/07/29 02:33:21;;;;;;;;;;;;;;;24.27;52.02;100127.03;2295200;76;51447;-74
2023/07/29 02:36:22;;;;;;;;;;;;;;;24.27;51.97;100115.68;2295072;76;50332;-74
2023/07/29 02:39:24;;;;;;;;;;;;;;;24.27;52.03;100118.39;2307886;76;50772;-75
2023/07/29 02:42:26;;;;;;;;;;;;;;;24.26;52.07;100118.64;2308623;76;50658;-74
2023/07/29 02:45:27;;;;;;;;;;;;;;;24.24;52.07;100120.20;2314486;74;50105;-75
2023/07/29 02:48:29;;;;;;;;;;;;;;;24.23;52.13;100113.17;2341168;76;50226;-75
2023/07/29 02:51:31;;;;;;;;;;;;;;;24.26;52.07;100113.23;2341306;75;50685;-75
2023/07/29 02:54:32;;;;;;;;;;;;;;;24.25;52.01;100110.22;2341270;75;51511;-75
2023/07/29 02:57:34;;;;;;;;;;;;;;;24.23;52.04;100105.06;2308763;75;51372;-75
2023/07/29 03:00:35;;;;;;;;;;;;;;;24.24;51.96;100112.63;2341255;75;50311;-76
2023/07/29 03:03:37;;;;;;;;;;;;;;;24.23;52.03;100114.52;2309298;76;50055;-74
2023/07/29 03:06:39;;;;;;;;;;;;;;;24.23;52.10;100111.00;2283252;76;51094;-75
2023/07/29 03:09:41;;;;;;;;;;;;;;;24.24;51.99;100117.51;2323150;76;50224;-74
2023/07/29 03:12:43;;;;;;;;;;;;;;;24.25;51.91;100112.91;2304551;76;50474;-75
2023/07/29 03:15:45;;;;;;;;;;;;;;;24.24;51.78;100110.75;2291956;76;51393;-75
2023/07/29 03:18:47;;;;;;;;;;;;;;;24.26;51.59;100111.87;2258843;77;51528;-74
2023/07/29 03:21:48;;;;;;;;;;;;;;;24.29;51.41;100110.05;2259148;77;50649;-75
2023/07/29 03:24:50;;;;;;;;;;;;;;;24.31;51.35;100112.81;2263739;76;51486;-74
2023/07/29 03:27:51;;;;;;;;;;;;;;;24.27;51.42;100115.68;2317610;74;51472;-74
2023/07/29 03:30:54;;;;;;;;;;;;;;;24.28;51.49;100111.13;2258833;77;51168;-74
2023/07/29 03:33:55;;;;;;;;;;;;;;;24.29;51.41;100115.45;2258888;77;50630;-74
2023/07/29 03:36:57;;;;;;;;;;;;;;;24.29;51.32;100099.23;2258872;77;49920;-74
2023/07/29 03:39:58;;;;;;;;;;;;;;;24.31;51.23;100107.95;2258845;77;50593;-74
2023/07/29 03:43:00;;;;;;;;;;;;;;;24.33;51.16;100109.89;2234293;77;52406;-74
2023/07/29 03:46:02;;;;;;;;;;;;;;;24.32;51.11;100104.98;2304778;75;52693;-74
2023/07/29 03:49:03;;;;;;;;;;;;;;;24.32;51.24;100100.11;2295265;76;51289;-75
2023/07/29 03:52:05;;;;;;;;;;;;;;;24.28;51.34;100110.59;2319447;76;51505;-75
2023/07/29 03:55:07;;;;;;;;;;;;;;;24.26;51.48;100102.42;2274478;75;51605;-75
2023/07/29 03:58:09;;;;;;;;;;;;;;;24.28;51.33;100097.07;2306916;76;51372;-75
2023/07/29 04:01:10;;;;;;;;;;;;;;;24.26;51.56;100084.31;2309252;76;51392;-75
2023/07/29 04:04:12;;;;;;;;;;;;;;;24.25;51.48;100099.40;2309196;76;52157;-75
2023/07/29 04:07:14;;;;;;;;;;;;;;;24.23;51.51;100101.54;2283308;76;49526;-75
2023/07/29 04:10:15;;;;;;;;;;;;;;;24.22;51.59;100089.88;2321461;76;50712;-74
2023/07/29 04:13:17;;;;;;;;;;;;;;;24.24;51.43;100091.01;2321497;76;51391;-75
2023/07/29 04:16:18;;;;;;;;;;;;;;;24.23;51.58;100091.54;2321199;75;51487;-74
2023/07/29 04:19:20;;;;;;;;;;;;;;;24.25;51.52;100089.94;2283441;76;52502;-75
2023/07/29 04:22:22;;;;;;;;;;;;;;;24.23;51.58;100090.19;2309172;76;51334;-74
2023/07/29 04:25:23;;;;;;;;;;;;;;;24.25;51.59;100091.29;2320638;75;51394;-74
2023/07/29 04:28:25;;;;;;;;;;;;;;;24.27;51.47;100085.13;2280736;76;51385;-73
2023/07/29 04:31:26;;;;;;;;;;;;;;;24.27;51.50;100077.83;2257685;78;50822;-75
2023/07/29 04:34:28;;;;;;;;;;;;;;;24.27;51.37;100079.19;2277947;78;50230;-74
2023/07/29 04:37:30;;;;;;;;;;;;;;;24.27;51.56;100081.07;2278342;77;50188;-74
2023/07/29 04:40:33;;;;;;;;;;;;;;;24.29;51.42;100083.02;2258356;78;50062;-74
2023/07/29 04:43:35;;;;;;;;;;;;;;;24.32;51.31;100087.95;2258355;78;51170;-74
2023/07/29 04:46:36;;;;;;;;;;;;;;;24.30;51.39;100090.91;2262983;76;50267;-73
2023/07/29 04:49:38;;;;;;;;;;;;;;;24.31;51.39;100092.54;2292935;76;50208;-74
2023/07/29 04:52:40;;;;;;;;;;;;;;;24.33;51.25;100091.78;2293151;77;50220;-74
2023/07/29 04:55:43;;;;;;;;;;;;;;;24.30;51.38;100089.55;2295115;75;50584;-74
2023/07/29 04:58:44;;;;;;;;;;;;;;;24.32;51.30;100083.89;2296653;77;50382;-74
2023/07/29 05:01:47;;;;;;;;;;;;;;;24.32;51.19;100086.59;2301823;76;51354;-75
2023/07/29 05:04:48;;;;;;;;;;;;;;;24.31;51.35;100087.66;2297562;76;51641;-75
2023/07/29 05:07:50;;;;;;;;;;;;;;;24.32;51.27;100082.55;2301643;76;52319;-75
2023/07/29 05:10:52;;;;;;;;;;;;;;;24.34;51.34;100083.95;2297618;77;51303;-75
2023/07/29 05:13:54;;;;;;;;;;;;;;;24.34;51.45;100085.84;2297644;77;50391;-76
2023/07/29 05:16:55;;;;;;;;;;;;;;;24.37;51.41;100089.42;2297365;76;50589;-76
2023/07/29 05:19:57;;;;;;;;;;;;;;;24.39;51.43;100083.78;2302307;77;50038;-76
2023/07/29 05:22:58;;;;;;;;;;;;;;;24.41;51.19;100080.33;2301766;77;51487;-76
2023/07/29 05:26:00;;;;;;;;;;;;;;;24.46;51.44;100077.23;2329718;75;50792;-76
2023/07/29 05:29:02;;;;;;;;;;;;;;;24.59;51.44;100083.47;2302054;76;51342;-76
2023/07/29 05:32:03;;;;;;;;;;;;;;;24.61;51.15;100078.11;2333972;76;51274;-76
2023/07/29 05:35:05;;;;;;;;;;;;;;;24.59;50.93;100076.16;2301757;75;50637;-76
2023/07/29 05:38:08;;;;;;;;;;;;;;;24.56;50.87;100079.34;2301807;76;50572;-77
2023/07/29 05:41:09;;;;;;;;;;;;;;;24.52;50.82;100085.74;2334075;76;51517;-76
2023/07/29 05:44:11;;;;;;;;;;;;;;;24.52;50.70;100088.45;2302043;76;50144;-76
2023/07/29 05:47:13;;;;;;;;;;;;;;;24.57;50.54;100086.39;2333830;75;51491;-77
2023/07/29 05:50:14;;;;;;;;;;;;;;;24.65;50.70;100093.33;2334183;76;50266;-77
2023/07/29 05:53:16;;;;;;;;;;;;;;;24.77;50.68;100089.55;2333971;76;50431;-75
2023/07/29 05:56:17;;;;;;;;;;;;;;;24.78;50.35;100082.24;2291643;76;51156;-76
2023/07/29 05:59:19;;;;;;;;;;;;;;;24.71;50.21;100084.25;2300584;76;50647;-76
2023/07/29 06:02:20;;;;;;;;;;;;;;;24.78;50.35;100072.23;2334578;76;51524;-76
2023/07/29 06:05:22;;;;;;;;;;;;;;;24.93;50.26;100083.91;2301953;76;51646;-77
2023/07/29 06:08:24;;;;;;;;;;;;;;;25.03;50.07;100071.67;2256055;77;51437;-76
2023/07/29 06:11:25;;;;;;;;;;;;;;;25.10;49.87;100070.97;2289327;77;51459;-76
2023/07/29 06:14:27;;;;;;;;;;;;;;;25.20;49.67;100059.02;2256610;77;53444;-76
2023/07/29 06:17:28;;;;;;;;;;;;;;;25.17;49.50;100064.92;2289105;76;51451;-75
2023/07/29 06:20:30;;;;;;;;;;;;;;;25.04;49.49;100050.29;2286168;76;50860;-76
2023/07/29 06:23:31;;;;;;;;;;;;;;;24.99;49.56;100051.01;2334592;75;50348;-76
2023/07/29 06:26:33;;;;;;;;;;;;;;;24.97;49.60;100051.27;2300189;76;50294;-76
2023/07/29 06:29:35;;;;;;;;;;;;;;;25.09;49.94;100047.14;2275177;76;51607;-76
2023/07/29 06:32:36;;;;;;;;;;;;;;;25.22;49.61;100052.84;2313241;76;52493;-76
2023/07/29 06:35:38;;;;;;;;;;;;;;;25.31;49.40;100050.05;2317873;75;50694;-76
2023/07/29 06:38:40;;;;;;;;;;;;;;;25.36;49.24;100058.27;2334238;76;50579;-76
2023/07/29 06:41:42;;;;;;;;;;;;;;;25.38;49.10;100053.94;2299975;76;48477;-76
2023/07/29 06:44:45;;;;;;;;;;;;;;;25.40;49.21;100063.47;2294872;76;49417;-74
2023/07/29 06:47:47;;;;;;;;;;;;;;;25.30;49.10;100061.92;2289686;76;50638;-76
2023/07/29 06:50:50;;;;;;;;;;;;;;;25.20;49.17;100062.58;2313930;76;51482;-76
2023/07/29 06:53:52;;;;;;;;;;;;;;;25.21;49.52;100070.16;2333297;76;50778;-76
2023/07/29 06:56:53;;;;;;;;;;;;;;;25.27;49.62;100062.41;2297399;76;51779;-76
2023/07/29 06:59:55;;;;;;;;;;;;;;;25.28;49.42;100065.94;2323838;76;51427;-76
2023/07/29 07:02:57;;;;;;;;;;;;;;;25.28;49.41;100073.55;2333260;76;51289;-76
2023/07/29 07:05:59;;;;;;;;;;;;;;;25.24;49.34;100070.20;2301842;75;51331;-76
2023/07/29 07:09:00;;;;;;;;;;;;;;;25.23;49.47;100076.67;2267898;77;52489;-76
2023/07/29 07:12:02;;;;;;;;;;;;;;;25.20;49.42;100076.62;2313202;76;50582;-75
2023/07/29 07:15:03;;;;;;;;;;;;;;;25.17;49.47;100079.81;2249997;75;52373;-76
2023/07/29 07:18:05;;;;;;;;;;;;;;;25.16;49.61;100075.47;2315180;75;51364;-76
2023/07/29 07:21:07;;;;;;;;;;;;;;;25.17;49.75;100077.11;2267818;76;50814;-75
2023/07/29 07:24:08;;;;;;;;;;;;;;;25.21;49.91;100075.58;2258276;78;51419;-77
2023/07/29 07:27:10;;;;;;;;;;;;;;;25.23;49.89;100080.73;2285784;76;51393;-76
2023/07/29 07:30:12;;;;;;;;;;;;;;;25.24;49.99;100081.86;2253074;78;51344;-75
2023/07/29 07:33:13;;;;;;;;;;;;;;;25.22;49.88;100074.50;2253046;76;51633;-74
2023/07/29 07:36:15;;;;;;;;;;;;;;;25.20;49.82;100075.27;2253071;78;51301;-76
2023/07/29 07:39:17;;;;;;;;;;;;;;;25.22;50.06;100077.74;2285927;76;50315;-77
2023/07/29 07:42:18;;;;;;;;;;;;;;;25.27;50.14;100077.30;2253133;78;50663;-77
2023/07/29 07:45:20;;;;;;;;;;;;;;;25.27;50.05;100069.18;2254535;76;52461;-75
2023/07/29 07:48:22;;;;;;;;;;;;;;;25.24;50.11;100066.97;2288137;76;50210;-75
2023/07/29 07:51:23;;;;;;;;;;;;;;;25.27;50.49;100063.77;2341134;74;50609;-75
2023/07/29 07:54:25;;;;;;;;;;;;;;;25.34;51.42;100061.74;2308462;76;51357;-74
2023/07/29 07:57:26;;;;;;;;;;;;;;;25.26;51.42;100057.26;2282899;76;52200;-75
2023/07/29 08:00:28;;;;;;;;;;;;;;;25.30;52.05;100059.22;2308896;74;51455;-74
2023/07/29 08:03:29;;;;;;;;;;;;;;;25.29;52.04;100049.45;2308955;76;50340;-74
2023/07/29 08:06:31;;;;;;;;;;;;;;;25.24;52.23;100052.61;2308604;75;52281;-74
2023/07/29 08:09:33;;;;;;;;;;;;;;;25.25;52.52;100052.89;2308899;76;52506;-74
2023/07/29 08:12:35;;;;;;;;;;;;;;;25.23;53.05;100053.66;2308935;74;50688;-73
2023/07/29 08:15:36;;;;;;;;;;;;;;;25.23;53.80;100042.83;2335447;74;50592;-76
2023/07/29 08:18:38;;;;;;;;;;;;;;;25.20;54.17;100050.90;2284143;76;51567;-76
2023/07/29 08:21:39;;;;;;;;;;;;;;;25.19;53.71;100051.44;2309668;76;51163;-75
2023/07/29 08:24:41;;;;;;;;;;;;;;;25.17;53.53;100044.62;2309425;76;50599;-75
2023/07/29 08:27:43;;;;;;;;;;;;;;;25.14;53.15;100045.08;2341155;74;50616;-76
2023/07/29 08:30:44;;;;;;;;;;;;;;;25.13;53.78;100044.80;2309146;76;51396;-75
2023/07/29 08:33:46;;;;;;;;;;;;;;;25.12;53.86;100037.72;2309549;76;51546;-76
2023/07/29 08:36:47;;;;;;;;;;;;;;;25.17;54.08;100027.84;2309005;76;51880;-74
2023/07/29 08:39:49;;;;;;;;;;;;;;;25.19;53.81;100021.66;2341659;76;51405;-75
2023/07/29 08:42:51;;;;;;;;;;;;;;;25.27;54.17;100027.75;2341708;76;51729;-76
2023/07/29 08:45:52;;;;;;;;;;;;;;;25.26;54.07;100028.83;2309218;74;52407;-78
2023/07/29 08:48:54;;;;;;;;;;;;;;;25.23;54.86;100032.84;2306732;76;50290;-76
2023/07/29 08:51:56;;;;;;;;;;;;;;;25.17;54.74;100028.38;2334192;76;50592;-76
2023/07/29 08:54:57;;;;;;;;;;;;;;;25.14;55.01;100026.13;2334224;76;50188;-77
2023/07/29 08:57:59;;;;;;;;;;;;;;;25.15;55.22;100025.05;2340371;75;50198;-78
2023/07/29 09:01:01;;;;;;;;;;;;;;;25.10;55.51;100022.25;2342140;74;50708;-78
2023/07/29 09:04:03;;;;;;;;;;;;;;;25.09;55.31;100024.14;2290348;77;50655;-78
2023/07/29 09:07:06;;;;;;;;;;;;;;;25.07;55.20;100022.73;2290232;77;50196;-79
2023/07/29 09:10:10;;;;;;;;;;;;;;;25.08;55.05;100027.10;2257746;77;51698;-78
2023/07/29 09:13:12;;;;;;;;;;;;;;;25.06;55.03;100022.45;2265178;76;50290;-78
2023/07/29 09:16:13;;;;;;;;;;;;;;;25.04;54.99;100017.27;2326289;76;50560;-79
2023/07/29 09:19:15;;;;;;;;;;;;;;;25.03;54.99;100021.59;2323502;75;49932;-78
2023/07/29 09:22:20;;;;;;;;;;;;;;;25.03;54.85;100012.94;2311411;75;51562;-78
2023/07/29 09:25:25;;;;;;;;;;;;;;;25.02;54.89;100014.52;2254429;76;50710;-78
2023/07/29 09:28:27;;;;;;;;;;;;;;;25.00;54.77;100008.01;2286686;78;50728;-78
2023/07/29 09:31:29;;;;;;;;;;;;;;;24.99;54.90;100009.05;2326188;76;50683;-77
2023/07/29 09:34:31;;;;;;;;;;;;;;;24.99;54.92;100007.16;2323066;76;51466;-77
2023/07/29 09:37:32;;;;;;;;;;;;;;;25.01;54.97;100008.83;2364247;74;50308;-79
2023/07/29 09:40:37;;;;;;;;;;;;;;;25.06;54.77;99996.20;2338402;76;50059;-79
2023/07/29 09:43:39;;;;;;;;;;;;;;;25.06;54.82;99988.08;2315557;76;51635;-78
2023/07/29 09:46:41;;;;;;;;;;;;;;;25.07;54.70;99983.48;2364457;74;51477;-79
2023/07/29 09:49:42;;;;;;;;;;;;;;;25.07;54.65;99991.06;2357062;74;50210;-78
2023/07/29 09:52:44;;;;;;;;;;;;;;;25.07;54.60;99988.89;2294367;75;50763;-77
2023/07/29 09:55:50;;;;;;;;;;;;;;;25.04;54.75;99979.38;2283162;78;51406;-78
2023/07/29 09:58:52;;;;;;;;;;;;;;;25.03;54.77;99980.99;2249954;78;51530;-76
2023/07/29 10:01:53;;;;;;;;;;;;;;;25.02;54.63;99969.31;2249970;78;50415;-77
2023/07/29 10:04:55;;;;;;;;;;;;;;;25.03;54.66;99970.16;2282908;76;51543;-76
2023/07/29 10:07:57;;;;;;;;;;;;;;;25.01;54.54;99973.64;2282834;78;49879;-77
2023/07/29 10:11:08;;;;;;;;;;;;;;;25.03;54.46;99971.52;2250186;78;51298;-78
2023/07/29 10:14:09;;;;;;;;;;;;;;;25.02;54.48;99967.14;2283182;78;50446;-77
2023/07/29 10:17:11;;;;;;;;;;;;;;;25.01;54.52;99958.75;2283573;77;50692;-79
2023/07/29 10:20:13;;;;;;;;;;;;;;;24.99;54.49;99961.15;2298330;76;50186;-79
2023/07/29 10:23:14;;;;;;;;;;;;;;;24.99;54.45;99965.75;2346516;74;50594;-78
2023/07/29 10:26:16;;;;;;;;;;;;;;;24.98;54.48;99958.16;2349789;74;50048;-82
2023/07/29 10:29:21;;;;;;;;;;;;;;;24.99;54.43;99948.97;2382884;74;51500;-76
2023/07/29 10:32:24;;;;;;;;;;;;;;;24.99;54.40;99948.16;2381745;74;51528;-76
2023/07/29 10:35:26;;;;;;;;;;;;;;;24.98;54.55;99941.11;2381727;74;50738;-75
2023/07/29 10:38:27;;;;;;;;;;;;;;;24.98;54.56;99933.80;2347952;74;51127;-75
2023/07/29 10:41:48;;;;;;;;;;;;;;;24.98;54.44;99937.05;2381215;74;50251;-75
2023/07/29 10:44:55;;;;;;;;;;;;;;;24.99;54.34;99929.20;2253019;78;51593;-75
2023/07/29 10:47:54;;;;;;;;;;;;;;;24.98;54.58;99927.58;2250518;79;22548;-75
2023/07/29 10:51:13;;;;;;;;;;;;;;;24.98;54.52;99924.87;2193373;80;52535;-75
2023/07/29 10:54:15;;;;;;;;;;;;;;;24.98;54.91;99895.91;2193181;80;50389;-76
2023/07/29 10:57:19;;;;;;;;;;;;;;;25.01;54.92;99897.31;2192870;80;51591;-74
2023/07/29 11:00:23;;;;;;;;;;;;;;;25.04;54.70;99904.13;2193028;81;51389;-72
2023/07/29 11:03:28;;;;;;;;;;;;;;;25.05;55.03;99908.45;2165167;81;52576;-73
2023/07/29 11:06:28;;;;;;;;;;;;;;;25.02;55.56;99914.36;2169871;81;22516;-73
2023/07/29 11:09:40;;;;;;;;;;;;;;;25.03;55.70;99924.96;2193342;81;51395;-74
2023/07/29 11:12:51;;;;;;;;;;;;;;;25.01;55.86;99916.80;2188915;81;51399;-73
2023/07/29 11:15:53;;;;;;;;;;;;;;;24.99;56.05;99894.84;2246874;76;51485;-74
2023/07/29 11:18:55;;;;;;;;;;;;;;;24.99;56.11;99912.43;2256834;77;51647;-74
2023/07/29 11:21:56;;;;;;;;;;;;;;;25.01;56.17;99976.34;2296359;76;50695;-73
2023/07/29 11:24:58;;;;;;;;;;;;;;;24.99;56.99;100051.82;2254897;77;50564;-77
2023/07/29 11:28:00;;;;;;;;;;;;;;;24.99;56.87;99973.87;2221881;79;51737;-76
2023/07/29 11:31:01;;;;;;;;;;;;;;;25.02;56.64;99986.09;2246939;77;51354;-78
2023/07/29 11:34:07;;;;;;;;;;;;;;;25.02;56.76;99982.03;2255570;79;50671;-77
2023/07/29 11:37:10;;;;;;;;;;;;;;;25.02;56.96;99962.55;2255659;77;50633;-78
2023/07/29 11:40:15;;;;;;;;;;;;;;;25.03;56.87;99949.33;2264705;77;50789;-79
2023/07/29 11:43:19;;;;;;;;;;;;;;;25.03;57.08;99952.56;2293934;77;50239;-77
2023/07/29 11:46:22;;;;;;;;;;;;;;;25.01;56.97;99951.44;2294124;76;51483;-78
2023/07/29 11:49:24;;;;;;;;;;;;;;;24.95;57.42;99947.83;2305877;74;50489;-78
2023/07/29 11:52:25;;;;;;;;;;;;;;;24.94;57.52;99945.35;2289096;76;52308;-79
2023/07/29 11:55:27;;;;;;;;;;;;;;;24.94;57.94;99952.94;2271903;77;51372;-78
2023/07/29 11:58:29;;;;;;;;;;;;;;;24.96;57.67;99942.70;2271347;78;51401;-77
2023/07/29 12:01:30;;;;;;;;;;;;;;;24.97;57.15;99930.82;2247959;78;51437;-77
2023/07/29 12:04:32;;;;;;;;;;;;;;;24.98;57.37;99935.16;2247235;78;52499;-77
2023/07/29 12:07:34;;;;;;;;;;;;;;;24.97;57.32;99934.88;2271182;77;50254;-77
2023/07/29 12:10:35;;;;;;;;;;;;;;;24.96;57.26;99926.45;2276685;76;49972;-77
2023/07/29 12:13:37;;;;;;;;;;;;;;;24.96;57.43;99924.28;2305402;76;51880;-77
2023/07/29 12:16:42;;;;;;;;;;;;;;;24.94;58.38;99916.40;2307277;76;52518;-78
2023/07/29 12:19:44;;;;;;;;;;;;;;;24.93;59.28;99924.23;2300776;76;50653;-78
2023/07/29 12:22:45;;;;;;;;;;;;;;;24.93;58.58;99933.71;2286854;76;50690;-76
2023/07/29 12:25:47;;;;;;;;;;;;;;;24.97;58.73;99948.41;2317815;75;51385;-75
2023/07/29 12:28:48;;;;;;;;;;;;;;;24.95;58.51;99941.06;2306078;76;51583;-75
2023/07/29 12:31:50;;;;;;;;;;;;;;;24.93;58.68;99939.66;2293511;76;51332;-75
2023/07/29 12:34:53;;;;;;;;;;;;;;;24.96;58.10;99952.16;2294024;76;51866;-75
2023/07/29 12:38:01;;;;;;;;;;;;;;;24.93;58.57;99956.72;2319100;75;51465;-75
2023/07/29 12:41:02;;;;;;;;;;;;;;;24.93;58.27;99941.83;2294498;76;51646;-75
2023/07/29 12:44:04;;;;;;;;;;;;;;;24.99;57.95;99943.55;2304294;76;51546;-75
2023/07/29 12:47:06;;;;;;;;;;;;;;;24.98;57.98;99940.57;2279516;76;51444;-75
2023/07/29 12:50:08;;;;;;;;;;;;;;;24.98;57.93;99929.75;2270855;76;53554;-75
2023/07/29 12:53:12;;;;;;;;;;;;;;;25.03;57.45;99929.56;2286025;76;52364;-76
2023/07/29 12:56:14;;;;;;;;;;;;;;;25.06;57.66;99916.34;2314912;75;50642;-75
2023/07/29 12:59:15;;;;;;;;;;;;;;;25.08;57.42;99911.52;2314612;76;50494;-76
2023/07/29 13:02:17;;;;;;;;;;;;;;;25.11;57.61;99912.38;2336515;76;50230;-75
2023/07/29 13:05:18;;;;;;;;;;;;;;;25.10;57.49;99912.09;2283323;75;52501;-76
2023/07/29 13:08:20;;;;;;;;;;;;;;;25.11;57.59;99913.73;2309391;74;50356;-75
2023/07/29 13:11:22;;;;;;;;;;;;;;;25.10;58.17;99919.38;2330010;75;51444;-76
2023/07/29 13:14:26;;;;;;;;;;;;;;;25.04;58.79;99921.72;2363737;74;51425;-75
2023/07/29 13:17:27;;;;;;;;;;;;;;;25.02;58.82;99926.55;2336593;75;22958;-76
2023/07/29 13:20:29;;;;;;;;;;;;;;;25.02;58.70;99934.13;2359284;74;51491;-75
2023/07/29 13:23:30;;;;;;;;;;;;;;;25.04;58.62;99933.36;2277157;77;50422;-76
2023/07/29 13:26:32;;;;;;;;;;;;;;;25.06;59.07;99938.00;2289121;76;50173;-76
2023/07/29 13:29:34;;;;;;;;;;;;;;;25.01;59.29;99933.84;2232068;77;51602;-75
2023/07/29 13:32:35;;;;;;;;;;;;;;;24.98;59.55;99936.52;2256520;77;51403;-76
2023/07/29 13:35:37;;;;;;;;;;;;;;;25.03;59.49;99939.03;2289399;77;51423;-76
2023/07/29 13:38:38;;;;;;;;;;;;;;;25.04;59.44;99943.38;2270501;76;50603;-77
2023/07/29 13:41:40;;;;;;;;;;;;;;;25.02;59.72;99931.95;2279788;76;52467;-77
2023/07/29 13:44:41;;;;;;;;;;;;;;;24.99;59.66;99919.73;2281131;76;52059;-77
2023/07/29 13:47:43;;;;;;;;;;;;;;;24.98;60.47;99918.10;2300507;74;51418;-76
2023/07/29 13:50:45;;;;;;;;;;;;;;;24.98;60.31;99914.05;2330651;76;51526;-76
2023/07/29 13:53:46;;;;;;;;;;;;;;;24.98;60.43;99908.09;2291991;76;52466;-76
2023/07/29 13:56:48;;;;;;;;;;;;;;;24.99;60.35;99902.95;2288178;76;50572;-78
2023/07/29 13:59:49;;;;;;;;;;;;;;;24.99;60.57;99904.31;2318517;76;51451;-77
2023/07/29 14:02:51;;;;;;;;;;;;;;;24.98;60.39;99904.03;2306101;76;51391;-77
2023/07/29 14:05:53;;;;;;;;;;;;;;;25.01;60.47;99908.67;2309272;75;51135;-74
2023/07/29 14:08:54;;;;;;;;;;;;;;;25.02;60.92;99907.06;2303195;76;51537;-77
2023/07/29 14:11:56;;;;;;;;;;;;;;;25.03;60.67;99904.66;2321471;76;51357;-76
2023/07/29 14:14:57;;;;;;;;;;;;;;;25.05;60.47;99897.62;2320047;76;50684;-78
2023/07/29 14:17:59;;;;;;;;;;;;;;;25.00;60.54;99892.97;2288048;76;50942;-77
2023/07/29 14:21:01;;;;;;;;;;;;;;;24.99;60.48;99889.42;2322940;75;51468;-78
2023/07/29 14:24:02;;;;;;;;;;;;;;;24.97;60.45;99892.93;2322825;76;51421;-78
2023/07/29 14:27:04;;;;;;;;;;;;;;;24.97;60.31;99888.02;2300638;75;50114;-77
2023/07/29 14:30:06;;;;;;;;;;;;;;;24.96;60.34;99887.75;2275282;76;52344;-76
2023/07/29 14:33:08;;;;;;;;;;;;;;;24.97;60.39;99889.38;2300622;76;51409;-78
2023/07/29 14:36:10;;;;;;;;;;;;;;;24.95;60.31;99880.17;2300250;76;53211;-76
2023/07/29 14:39:11;;;;;;;;;;;;;;;24.96;60.33;99875.57;2322540;75;51358;-78
2023/07/29 14:42:14;;;;;;;;;;;;;;;24.93;60.50;99885.00;2274883;76;52427;-77
2023/07/29 14:45:16;;;;;;;;;;;;;;;24.95;60.57;99887.47;2322414;75;50468;-78
2023/07/29 14:48:18;;;;;;;;;;;;;;;24.95;60.63;99891.53;2322004;75;51393;-76
2023/07/29 14:51:19;;;;;;;;;;;;;;;24.95;60.51;99896.41;2313060;76;51435;-78
2023/07/29 14:54:21;;;;;;;;;;;;;;;24.95;60.68;99915.35;2286119;76;51685;-77
2023/07/29 14:57:22;;;;;;;;;;;;;;;24.95;60.81;99916.70;2311836;76;51448;-79
2023/07/29 15:00:24;;;;;;;;;;;;;;;24.93;60.63;99922.08;2334404;76;51296;-77
2023/07/29 15:03:25;;;;;;;;;;;;;;;24.93;60.70;99916.13;2333673;76;50224;-76
2023/07/29 15:06:27;;;;;;;;;;;;;;;24.92;60.64;99909.58;2333356;75;50189;-77
2023/07/29 15:09:29;;;;;;;;;;;;;;;24.93;60.44;99908.54;2333411;76;50294;-77
2023/07/29 15:12:30;;;;;;;;;;;;;;;24.90;60.38;99907.14;2333662;76;50560;-77
2023/07/29 15:15:32;;;;;;;;;;;;;;;24.89;60.59;99908.73;2311115;75;50016;-77
2023/07/29 15:18:34;;;;;;;;;;;;;;;24.92;60.28;99920.41;2283323;76;52489;-77
2023/07/29 15:21:36;;;;;;;;;;;;;;;24.88;60.49;99920.09;2312957;76;51506;-77
2023/07/29 15:24:39;;;;;;;;;;;;;;;24.87;60.62;99921.16;2309991;76;51462;-77
2023/07/29 15:27:41;;;;;;;;;;;;;;;24.93;60.09;99914.77;2333683;75;22247;-78
2023/07/29 15:30:42;;;;;;;;;;;;;;;24.92;60.13;99921.25;2311536;76;50262;-76
2023/07/29 15:33:44;;;;;;;;;;;;;;;24.89;60.52;99932.57;2334936;76;50324;-77
2023/07/29 15:36:45;;;;;;;;;;;;;;;24.86;60.88;99938.45;2315757;76;50381;-76
2023/07/29 15:39:47;;;;;;;;;;;;;;;24.85;60.87;99947.64;2313856;76;50666;-76